Time;durP1;ratioP1;P1;durP2;ratioP2;P2;SDS_P1;SDS_P2;PMS_P1;PMS_P2;Temp;Humidity;BMP_temperature;BMP_pressure;BME280_temperature;BME280_humidity;BME280_pressure;Samples;Min_cycle;Max_cycle;Signal;HPM_P1;HPM_P2
2023/05/22 00:00:17;;;;;;;12.32;8.45;;;;;;;14.01;100.00;95427.66;1030201;28;20106;-71
2023/05/22 00:00:47;;;;;;;13.00;7.70;;;;;;;13.99;100.00;95421.91;1034030;28;20025;-71
2023/05/22 00:01:21;;;;;;;11.40;8.27;;;;;;;13.96;100.00;95417.22;1029440;28;20313;-71
2023/05/22 00:01:55;;;;;;;11.07;7.97;;;;;;;13.89;100.00;95417.59;1028850;28;20030;-74
2023/05/22 00:02:25;;;;;;;12.93;8.82;;;;;;;13.91;100.00;95421.50;1022295;29;20070;-71
2023/05/22 00:02:57;;;;;;;11.05;8.50;;;;;;;13.87;100.00;95420.53;1022950;28;20038;-72
2023/05/22 00:03:28;;;;;;;11.07;8.88;;;;;;;13.85;100.00;95417.41;1026144;28;20116;-70
2023/05/22 00:03:59;;;;;;;11.23;8.27;;;;;;;13.83;100.00;95416.13;1029473;28;20046;-71
2023/05/22 00:04:30;;;;;;;12.18;8.60;;;;;;;13.83;100.00;95421.41;1038253;28;20493;-70
2023/05/22 00:05:01;;;;;;;15.80;8.25;;;;;;;13.81;100.00;95416.41;1038296;28;20027;-70
2023/05/22 00:05:37;;;;;;;9.98;7.93;;;;;;;13.82;100.00;95418.00;1034215;28;20030;-70
2023/05/22 00:06:09;;;;;;;12.50;8.75;;;;;;;13.80;100.00;95411.44;1025179;28;20027;-70
2023/05/22 00:06:42;;;;;;;19.27;8.85;;;;;;;13.79;100.00;95429.13;1026224;28;20106;-71
2023/05/22 00:07:12;;;;;;;12.77;8.35;;;;;;;13.72;100.00;95412.88;1026107;28;20026;-70
2023/05/22 00:07:44;;;;;;;12.98;8.45;;;;;;;13.76;100.00;95419.13;1026843;28;20026;-70
2023/05/22 00:08:15;;;;;;;13.63;8.90;;;;;;;13.75;100.00;95422.88;1026182;28;20046;-69
2023/05/22 00:08:45;;;;;;;10.82;8.32;;;;;;;13.72;100.00;95420.03;1026036;28;20089;-70
2023/05/22 00:09:16;;;;;;;13.43;8.95;;;;;;;13.71;100.00;95427.13;1026444;28;20029;-70
2023/05/22 00:09:46;;;;;;;17.95;9.10;;;;;;;13.64;100.00;95410.91;1030261;28;20027;-71
2023/05/22 00:10:17;;;;;;;16.33;8.73;;;;;;;13.68;100.00;95422.44;1029983;28;20030;-71
2023/05/22 00:10:47;;;;;;;13.27;8.68;;;;;;;13.57;100.00;95411.28;1026152;28;20023;-70
2023/05/22 00:11:17;;;;;;;11.10;8.48;;;;;;;13.60;100.00;95412.56;1037360;28;20083;-70
2023/05/22 00:11:48;;;;;;;12.43;8.60;;;;;;;13.60;100.00;95415.97;1034060;28;20030;-71
2023/05/22 00:12:18;;;;;;;12.23;8.82;;;;;;;13.60;100.00;95420.47;1030382;28;20022;-71
2023/05/22 00:12:49;;;;;;;13.85;9.77;;;;;;;13.57;100.00;95416.53;1034092;28;20053;-71
2023/05/22 00:13:20;;;;;;;11.95;8.82;;;;;;;13.50;100.00;95410.88;1030027;28;20435;-71
2023/05/22 00:13:50;;;;;;;13.10;8.55;;;;;;;13.51;100.00;95411.66;1030188;28;20613;-70
2023/05/22 00:14:21;;;;;;;13.52;9.02;;;;;;;13.46;100.00;95409.88;1026304;28;20026;-71
2023/05/22 00:14:51;;;;;;;13.35;9.00;;;;;;;13.51;100.00;95422.19;1030223;28;20559;-71
2023/05/22 00:15:22;;;;;;;14.02;8.55;;;;;;;13.48;100.00;95417.50;1031492;28;20396;-71
2023/05/22 00:15:52;;;;;;;17.17;9.10;;;;;;;13.49;100.00;95427.00;1034193;28;20510;-70
2023/05/22 00:16:23;;;;;;;14.25;8.85;;;;;;;13.47;100.00;95423.84;1034465;28;20030;-70
2023/05/22 00:16:55;;;;;;;10.15;8.40;;;;;;;13.46;100.00;95424.94;1034338;28;20030;-71
2023/05/22 00:17:25;;;;;;;11.52;8.32;;;;;;;13.39;100.00;95415.53;1030401;28;20033;-71
2023/05/22 00:17:56;;;;;;;11.60;9.13;;;;;;;13.28;100.00;95398.31;1030298;28;20027;-70
2023/05/22 00:18:26;;;;;;;12.50;8.93;;;;;;;13.42;100.00;95420.22;1026535;28;20031;-71
2023/05/22 00:18:57;;;;;;;12.02;9.07;;;;;;;13.41;100.00;95423.94;1030227;28;20022;-71
2023/05/22 00:19:29;;;;;;;15.35;8.75;;;;;;;13.33;100.00;95410.63;1028628;28;20030;-70
2023/05/22 00:20:09;;;;;;;13.35;8.65;;;;;;;13.38;100.00;95423.69;1030267;28;20077;-71
2023/05/22 00:20:41;;;;;;;13.18;8.88;;;;;;;13.35;100.00;95426.94;1030233;28;20030;-70
2023/05/22 00:21:11;;;;;;;17.55;8.52;;;;;;;13.29;100.00;95414.91;1030891;28;20658;-70
2023/05/22 00:21:42;;;;;;;12.85;9.23;;;;;;;13.33;100.00;95427.22;1031692;28;20034;-71
2023/05/22 00:22:12;;;;;;;13.73;9.88;;;;;;;13.32;100.00;95423.03;1034330;28;20017;-71
2023/05/22 00:22:43;;;;;;;11.82;8.77;;;;;;;13.31;100.00;95421.47;1030101;28;20396;-71
2023/05/22 00:23:14;;;;;;;11.48;8.52;;;;;;;13.31;100.00;95424.09;1030195;28;20038;-73
2023/05/22 00:23:44;;;;;;;10.88;8.52;;;;;;;13.24;100.00;95417.56;1030255;28;20022;-72
2023/05/22 00:24:15;;;;;;;15.85;9.52;;;;;;;13.26;100.00;95421.53;1030279;28;20034;-71
2023/05/22 00:24:45;;;;;;;14.10;9.10;;;;;;;13.26;100.00;95416.25;1034215;28;20323;-70
2023/05/22 00:25:17;;;;;;;14.65;9.15;;;;;;;13.24;100.00;95421.03;1034209;28;20045;-71
2023/05/22 00:25:49;;;;;;;13.38;9.73;;;;;;;13.24;100.00;95422.84;1030284;28;20018;-71
2023/05/22 00:26:22;;;;;;;13.25;8.93;;;;;;;13.17;100.00;95416.09;1034171;28;20030;-71
2023/05/22 00:26:52;;;;;;;11.60;8.80;;;;;;;13.19;100.00;95419.22;1038390;28;20490;-71
2023/05/22 00:27:22;;;;;;;12.43;9.30;;;;;;;13.17;100.00;95423.22;1038363;28;20033;-71
2023/05/22 00:27:53;;;;;;;11.60;9.35;;;;;;;13.16;100.00;95421.66;1032320;28;20030;-71
2023/05/22 00:28:23;;;;;;;13.00;8.43;;;;;;;13.10;100.00;95417.53;1033928;28;20687;-70
2023/05/22 00:28:54;;;;;;;12.02;9.50;;;;;;;13.17;100.00;95425.84;1022029;28;20027;-71
2023/05/22 00:29:24;;;;;;;12.50;9.23;;;;;;;13.15;100.00;95420.09;1018230;29;20023;-70
2023/05/22 00:29:55;;;;;;;11.43;9.40;;;;;;;13.15;100.00;95423.50;1022001;29;20027;-71
2023/05/22 00:30:25;;;;;;;14.90;10.02;;;;;;;13.15;100.00;95417.47;1022381;28;20034;-71
2023/05/22 00:30:56;;;;;;;14.63;9.13;;;;;;;13.13;100.00;95417.72;1030080;28;20034;-71
2023/05/22 00:31:26;;;;;;;15.75;9.20;;;;;;;13.15;100.00;95420.88;1037121;28;20725;-71
2023/05/22 00:31:57;;;;;;;12.13;8.63;;;;;;;13.15;100.00;95423.50;1034083;28;20499;-71
2023/05/22 00:32:27;;;;;;;14.43;9.25;;;;;;;13.15;100.00;95420.88;1034297;28;20091;-70
2023/05/22 00:32:58;;;;;;;11.02;8.45;;;;;;;13.18;100.00;95419.53;1034071;28;20057;-71
2023/05/22 00:33:28;;;;;;;13.65;9.23;;;;;;;13.18;100.00;95419.53;1034356;28;20048;-71
2023/05/22 00:33:59;;;;;;;12.68;8.93;;;;;;;13.12;100.00;95410.13;1038216;28;20025;-71
2023/05/22 00:34:29;;;;;;;13.38;9.35;;;;;;;13.19;100.00;95423.72;1034085;28;20061;-71
2023/05/22 00:34:59;;;;;;;13.70;9.25;;;;;;;13.18;100.00;95420.31;1030176;28;20559;-71
2023/05/22 00:35:30;;;;;;;14.93;9.13;;;;;;;13.18;100.00;95424.78;1034193;28;20030;-70
2023/05/22 00:36:00;;;;;;;15.25;9.57;;;;;;;13.18;100.00;95422.94;1030085;28;20026;-71
2023/05/22 00:36:31;;;;;;;13.43;9.43;;;;;;;13.13;100.00;95416.94;1029458;28;20026;-71
2023/05/22 00:37:01;;;;;;;11.93;8.43;;;;;;;13.12;100.00;95420.66;1022095;28;20184;-70
2023/05/22 00:37:32;;;;;;;12.40;9.02;;;;;;;13.11;100.00;95416.44;1026127;28;20031;-71
2023/05/22 00:38:03;;;;;;;12.60;8.93;;;;;;;13.10;100.00;95412.25;1017993;29;20510;-71
2023/05/22 00:38:34;;;;;;;13.52;8.80;;;;;;;13.15;100.00;95426.16;1030055;28;20084;-71
2023/05/22 00:39:05;;;;;;;14.23;9.20;;;;;;;13.14;100.00;95423.78;1030165;28;20396;-71
2023/05/22 00:39:35;;;;;;;12.40;9.30;;;;;;;13.06;100.00;95416.53;1026722;28;20069;-71
2023/05/22 00:40:07;;;;;;;11.48;8.45;;;;;;;13.09;100.00;95416.75;1018146;29;20600;-71
2023/05/22 00:40:37;;;;;;;12.45;8.93;;;;;;;13.12;100.00;95420.66;1025849;28;20083;-71
2023/05/22 00:41:08;;;;;;;12.70;9.55;;;;;;;13.08;100.00;95419.69;1025623;28;20030;-70
2023/05/22 00:41:38;;;;;;;11.25;8.90;;;;;;;13.05;100.00;95414.97;1025689;28;20038;-71
2023/05/22 00:42:09;;;;;;;12.43;9.30;;;;;;;13.09;100.00;95426.50;1026168;28;20093;-70
2023/05/22 00:42:39;;;;;;;13.77;10.43;;;;;;;13.07;100.00;95426.00;1026051;28;20023;-71
2023/05/22 00:43:09;;;;;;;11.27;8.93;;;;;;;13.08;100.00;95424.94;1018071;29;20030;-71
2023/05/22 00:43:40;;;;;;;14.68;8.93;;;;;;;13.06;100.00;95427.84;1022105;29;20038;-70
2023/05/22 00:44:10;;;;;;;12.32;9.25;;;;;;;13.07;100.00;95424.13;1022322;28;20074;-71
2023/05/22 00:44:41;;;;;;;14.98;9.50;;;;;;;13.05;100.00;95420.25;1022658;28;20039;-70
2023/05/22 00:45:14;;;;;;;16.15;9.60;;;;;;;13.06;100.00;95427.06;1026202;28;20026;-70
2023/05/22 00:45:46;;;;;;;14.18;9.65;;;;;;;12.96;100.00;95412.97;1026086;28;20066;-70
2023/05/22 00:46:20;;;;;;;13.60;9.27;;;;;;;12.98;100.00;95415.34;1030784;28;20041;-71
2023/05/22 00:46:50;;;;;;;13.13;9.57;;;;;;;13.00;100.00;95421.09;1034057;28;20087;-71
2023/05/22 00:47:22;;;;;;;12.55;9.27;;;;;;;12.97;100.00;95427.69;1026176;28;20556;-71
2023/05/22 00:47:52;;;;;;;13.68;9.65;;;;;;;12.97;100.00;95419.00;1025130;28;20061;-70
2023/05/22 00:48:23;;;;;;;14.65;9.50;;;;;;;12.91;100.00;95415.69;1023129;28;20034;-71
2023/05/22 00:48:54;;;;;;;11.55;8.77;;;;;;;12.91;100.00;95418.31;1030249;28;20065;-71
2023/05/22 00:49:24;;;;;;;11.15;9.07;;;;;;;12.94;100.00;95415.13;1030246;28;20037;-71
2023/05/22 00:49:54;;;;;;;13.32;8.77;;;;;;;12.88;100.00;95411.00;1031752;28;20085;-72
2023/05/22 00:50:25;;;;;;;12.00;9.05;;;;;;;12.95;100.00;95416.69;1022087;28;20032;-71
2023/05/22 00:50:56;;;;;;;11.50;8.93;;;;;;;12.96;100.00;95418.25;1025833;28;20042;-71
2023/05/22 00:51:26;;;;;;;13.15;9.85;;;;;;;12.93;100.00;95415.41;1021876;28;20043;-71
2023/05/22 00:51:57;;;;;;;11.60;9.15;;;;;;;12.97;100.00;95421.66;1022276;28;20023;-71
2023/05/22 00:52:27;;;;;;;11.85;9.35;;;;;;;12.90;100.00;95411.47;1022101;29;20034;-71
2023/05/22 00:52:58;;;;;;;13.32;9.77;;;;;;;12.92;100.00;95408.56;1021965;28;20140;-71
2023/05/22 00:53:28;;;;;;;15.15;9.85;;;;;;;12.93;100.00;95408.28;1019094;29;20666;-71
2023/05/22 00:53:59;;;;;;;12.85;9.27;;;;;;;12.97;100.00;95414.53;1010256;29;20009;-71
2023/05/22 00:54:29;;;;;;;11.05;8.60;;;;;;;13.02;100.00;95426.88;1022130;29;20402;-71
2023/05/22 00:55:00;;;;;;;11.82;8.27;;;;;;;12.94;100.00;95411.69;1019553;29;20610;-71
2023/05/22 00:55:30;;;;;;;13.20;9.90;;;;;;;12.97;100.00;95422.44;1026126;28;20046;-71
2023/05/22 00:56:01;;;;;;;14.23;9.73;;;;;;;12.96;100.00;95423.50;1014333;29;20016;-71
2023/05/22 00:56:31;;;;;;;12.63;9.77;;;;;;;12.93;100.00;95421.44;1018421;28;20055;-71
2023/05/22 00:57:02;;;;;;;11.80;9.18;;;;;;;12.86;100.00;95413.13;1022076;29;20027;-69
2023/05/22 00:57:32;;;;;;;13.48;9.38;;;;;;;12.86;100.00;95417.59;1026387;28;20027;-71
2023/05/22 00:58:06;;;;;;;12.20;9.98;;;;;;;12.89;100.00;95430.19;1022268;28;20023;-71
2023/05/22 00:58:36;;;;;;;15.85;10.13;;;;;;;12.86;100.00;95428.91;1025236;28;20055;-71
2023/05/22 00:59:07;;;;;;;15.50;10.10;;;;;;;12.82;100.00;95421.88;1025995;28;20030;-71
2023/05/22 00:59:37;;;;;;;12.38;9.77;;;;;;;12.84;100.00;95430.25;1026099;28;20027;-70
2023/05/22 01:00:11;;;;;;;16.33;9.20;;;;;;;12.76;100.00;95423.78;1029960;28;20077;-71
2023/05/22 01:00:42;;;;;;;14.60;9.82;;;;;;;12.76;100.00;95423.78;1026552;28;20105;-71
2023/05/22 01:01:12;;;;;;;16.13;10.10;;;;;;;12.80;100.00;95432.69;1026097;28;20026;-71
2023/05/22 01:01:43;;;;;;;18.17;9.95;;;;;;;12.78;100.00;95426.94;1019297;29;20602;-70
2023/05/22 01:02:15;;;;;;;14.25;9.50;;;;;;;12.77;100.00;95430.59;1023588;28;20015;-71
2023/05/22 01:02:45;;;;;;;12.45;9.80;;;;;;;12.70;100.00;95419.66;1026847;28;20030;-71
2023/05/22 01:03:16;;;;;;;11.38;9.27;;;;;;;12.74;100.00;95431.16;1026982;28;20042;-70
2023/05/22 01:03:46;;;;;;;12.40;9.52;;;;;;;12.67;100.00;95415.72;1025188;28;20026;-71
2023/05/22 01:04:17;;;;;;;13.15;9.77;;;;;;;12.65;100.00;95422.38;1026994;28;20519;-70
2023/05/22 01:04:48;;;;;;;12.38;9.32;;;;;;;12.63;100.00;95420.00;1030804;28;20046;-70
2023/05/22 01:05:19;;;;;;;12.80;9.70;;;;;;;12.70;100.00;95440.72;1032450;28;20044;-71
2023/05/22 01:05:51;;;;;;;11.77;9.52;;;;;;;12.63;100.00;95424.47;1035058;28;20033;-71
2023/05/22 01:06:21;;;;;;;13.45;10.40;;;;;;;12.69;100.00;95434.66;1030966;28;20069;-70
2023/05/22 01:06:52;;;;;;;15.40;10.00;;;;;;;12.64;100.00;95426.03;1029871;28;20026;-71
2023/05/22 01:07:23;;;;;;;14.65;10.27;;;;;;;12.67;100.00;95441.28;1030705;28;20065;-71
2023/05/22 01:07:55;;;;;;;15.68;9.38;;;;;;;12.65;100.00;95432.91;1022760;29;20572;-73
2023/05/22 01:08:26;;;;;;;14.63;10.65;;;;;;;12.65;100.00;95438.16;1022855;28;20031;-70
2023/05/22 01:08:57;;;;;;;13.77;10.30;;;;;;;12.65;100.00;95438.16;1023261;28;20479;-71
2023/05/22 01:09:28;;;;;;;14.45;10.77;;;;;;;12.59;100.00;95429.53;1023389;28;20900;-70
2023/05/22 01:09:59;;;;;;;14.77;9.90;;;;;;;12.62;100.00;95433.44;1026750;28;20125;-70
2023/05/22 01:10:30;;;;;;;15.95;10.07;;;;;;;12.54;100.00;95426.16;1026025;28;20030;-71
2023/05/22 01:11:04;;;;;;;12.30;8.93;;;;;;;12.59;100.00;95447.97;1026646;28;20027;-68
2023/05/22 01:11:44;;;;;;;14.95;9.63;;;;;;;12.59;100.00;95441.91;1027321;28;20023;-71
2023/05/22 01:12:37;;;;;;;;;;;;;;;12.56;100.00;95437.22;1029295;28;20018;-71
2023/05/22 01:13:19;;;;;;;14.98;8.60;;;;;;;12.56;100.00;95439.84;1027190;28;20479;-70
2023/05/22 01:14:13;;;;;;;17.83;9.00;;;;;;;12.52;100.00;95439.63;1027056;28;20033;-70
2023/05/22 01:15:31;;;;;;;12.75;8.50;;;;;;;12.48;100.00;95443.88;1030780;28;20399;-71
2023/05/22 01:16:09;;;;;;;13.85;8.10;;;;;;;12.48;100.00;95449.94;1038619;28;20775;-71
2023/05/22 01:16:55;;;;;;;12.40;8.93;;;;;;;12.46;100.00;95446.78;1034545;28;20272;-71
2023/05/22 01:17:36;;;;;;;13.93;9.27;;;;;;;12.40;100.00;95437.38;1033776;28;20292;-70
2023/05/22 01:18:28;;;;;;;14.50;9.45;;;;;;;12.38;100.00;95449.28;1034970;28;20096;-70
2023/05/22 01:19:16;;;;;;;11.60;8.85;;;;;;;12.37;100.00;95445.84;1038886;28;20347;-70
2023/05/22 01:20:06;;;;;;;14.93;9.98;;;;;;;12.30;100.00;95448.03;1037148;28;20033;-71
2023/05/22 01:21:02;;;;;;;12.88;9.15;;;;;;;12.27;100.00;95438.06;1034937;28;20265;-71
2023/05/22 01:21:38;;;;;;;15.00;9.40;;;;;;;12.26;100.00;95442.53;1030303;28;20286;-71
2023/05/22 01:22:20;;;;;;;15.13;9.50;;;;;;;12.29;100.00;95451.72;1025995;28;20277;-71
2023/05/22 01:23:14;;;;;;;15.13;9.25;;;;;;;12.25;100.00;95455.97;1023799;28;20757;-71
2023/05/22 01:24:12;;;;;;;11.98;9.10;;;;;;;12.26;100.00;95452.28;1027591;28;20559;-71
2023/05/22 01:25:05;;;;;;;11.15;8.38;;;;;;;12.13;100.00;95445.06;1031017;28;20269;-71
2023/05/22 01:25:39;;;;;;;11.40;8.63;;;;;;;12.18;100.00;95456.31;1030992;28;20804;-71
2023/05/22 01:26:30;;;;;;;17.42;11.45;;;;;;;12.18;100.00;95455.53;1030591;28;20600;-71
2023/05/22 01:27:38;;;;;;;13.65;9.88;;;;;;;12.17;100.00;95456.56;1029521;28;20695;-70
2023/05/22 01:28:27;;;;;;;11.23;8.32;;;;;;;12.15;100.00;95450.81;1026703;28;20616;-71
2023/05/22 01:29:35;;;;;;;12.02;8.88;;;;;;;12.12;100.00;95461.91;1034243;28;20297;-70
2023/05/22 01:30:35;;;;;;;14.82;9.63;;;;;;;12.08;100.00;95466.16;1038243;28;20236;-71
2023/05/22 01:31:11;;;;;;;14.18;9.38;;;;;;;11.98;100.00;95448.63;1030057;28;20274;-71
2023/05/22 01:31:42;;;;;;;12.55;9.60;;;;;;;11.96;100.00;95448.91;1026807;28;20568;-71
2023/05/22 01:32:17;;;;;;;11.93;9.48;;;;;;;12.02;100.00;95466.19;1014937;29;20291;-71
2023/05/22 01:32:48;;;;;;;15.80;10.65;;;;;;;12.01;100.00;95462.00;1014777;29;20391;-70
2023/05/22 01:33:18;;;;;;;11.60;9.43;;;;;;;11.97;100.00;95455.75;1022654;29;20278;-71
2023/05/22 01:33:53;;;;;;;14.77;11.32;;;;;;;12.01;100.00;95464.63;1023441;28;20138;-71
2023/05/22 01:34:24;;;;;;;13.63;10.23;;;;;;;11.99;100.00;95463.34;1023307;28;20132;-71
2023/05/22 01:34:55;;;;;;;13.75;10.20;;;;;;;11.93;100.00;95457.34;1018751;29;20325;-71
2023/05/22 01:35:26;;;;;;;13.85;10.60;;;;;;;11.95;100.00;95457.06;1030808;28;20026;-71
2023/05/22 01:35:56;;;;;;;13.85;10.23;;;;;;;11.96;100.00;95464.66;1034813;28;20264;-70
2023/05/22 01:36:30;;;;;;;16.85;10.82;;;;;;;11.95;100.00;95463.09;1025600;28;20543;-71
2023/05/22 01:37:00;;;;;;;15.00;10.77;;;;;;;11.97;100.00;95461.00;1022912;29;20855;-71
2023/05/22 01:37:31;;;;;;;14.05;10.63;;;;;;;11.96;100.00;95462.03;1022880;29;20048;-71
2023/05/22 01:38:01;;;;;;;14.85;10.35;;;;;;;11.94;100.00;95456.28;1027195;28;20085;-71
2023/05/22 01:38:32;;;;;;;16.50;10.55;;;;;;;11.97;100.00;95460.19;1026739;28;20038;-71
2023/05/22 01:39:05;;;;;;;14.70;10.93;;;;;;;11.93;100.00;95454.69;1026910;28;20671;-71
2023/05/22 01:39:35;;;;;;;13.50;10.23;;;;;;;11.92;100.00;95458.41;1023575;28;20019;-71
2023/05/22 01:40:06;;;;;;;13.25;10.13;;;;;;;11.95;100.00;95462.34;1026704;28;20883;-70
2023/05/22 01:40:36;;;;;;;13.52;10.80;;;;;;;11.89;100.00;95453.69;1022863;29;20042;-71
2023/05/22 01:41:08;;;;;;;20.65;10.90;;;;;;;11.88;100.00;95446.88;1033958;28;20562;-70
2023/05/22 01:41:38;;;;;;;13.98;10.43;;;;;;;11.92;100.00;95447.88;1030885;28;20035;-71
2023/05/22 01:42:09;;;;;;;20.08;10.77;;;;;;;11.92;100.00;95457.63;1026707;28;20337;-71
2023/05/22 01:42:40;;;;;;;16.38;10.98;;;;;;;11.92;100.00;95462.88;1026731;28;20687;-70
2023/05/22 01:43:11;;;;;;;14.25;9.70;;;;;;;11.85;100.00;95447.44;1034737;28;20026;-71
2023/05/22 01:43:42;;;;;;;15.43;10.82;;;;;;;11.92;100.00;95463.66;1030609;28;20500;-71
2023/05/22 01:44:12;;;;;;;16.17;11.15;;;;;;;11.91;100.00;95456.06;1034895;28;20355;-71
2023/05/22 01:44:42;;;;;;;13.50;9.98;;;;;;;11.86;100.00;95454.25;1033485;28;20088;-70
2023/05/22 01:45:13;;;;;;;14.93;11.27;;;;;;;11.88;100.00;95467.91;1030027;28;20026;-70
2023/05/22 01:45:43;;;;;;;15.77;11.20;;;;;;;11.85;100.00;95463.22;1034828;28;20030;-71
2023/05/22 01:46:14;;;;;;;15.35;10.98;;;;;;;11.86;100.00;95464.75;1038951;28;20032;-71
2023/05/22 01:46:44;;;;;;;16.10;11.23;;;;;;;11.87;100.00;95463.72;1038520;28;20041;-71
2023/05/22 01:47:16;;;;;;;15.07;10.25;;;;;;;11.87;100.00;95466.34;1038919;28;20034;-72
2023/05/22 01:47:47;;;;;;;15.95;9.88;;;;;;;11.72;100.00;95445.41;1034309;28;20111;-71
2023/05/22 01:48:17;;;;;;;13.88;10.60;;;;;;;11.84;100.00;95463.44;1030657;28;20940;-72
2023/05/22 01:48:48;;;;;;;17.20;10.60;;;;;;;11.84;100.00;95469.53;1026588;28;20022;-71
2023/05/22 01:49:18;;;;;;;15.88;10.88;;;;;;;11.83;100.00;95469.75;1022679;28;20055;-70
2023/05/22 01:49:50;;;;;;;15.65;11.15;;;;;;;11.81;100.00;95470.06;1026603;28;20026;-71
2023/05/22 01:50:20;;;;;;;13.63;10.30;;;;;;;11.79;100.00;95472.16;1030659;28;20638;-71
2023/05/22 01:50:51;;;;;;;20.58;10.90;;;;;;;11.78;100.00;95479.28;1022760;29;20027;-71
2023/05/22 01:51:47;;;;;;;15.10;10.15;;;;;;;11.78;100.00;95479.28;1022038;29;20484;-71
2023/05/22 01:52:17;;;;;;;14.63;10.30;;;;;;;11.76;100.00;95476.13;1026287;28;20054;-71
2023/05/22 01:53:06;;;;;;;21.65;12.18;;;;;;;11.76;100.00;95472.72;1030280;28;20655;-71
2023/05/22 01:53:47;;;;;;;13.32;10.38;;;;;;;11.74;100.00;95472.22;1030780;28;20110;-71
2023/05/22 01:54:23;;;;;;;14.18;10.05;;;;;;;11.75;100.00;95484.28;1030556;28;20010;-71
2023/05/22 01:55:02;;;;;;;18.35;10.98;;;;;;;11.67;100.00;95467.28;1026525;28;20081;-70
2023/05/22 01:55:54;;;;;;;13.77;10.32;;;;;;;11.74;100.00;95482.75;1018865;29;20781;-71
2023/05/22 01:56:33;;;;;;;15.15;10.32;;;;;;;11.67;100.00;95474.34;1022753;29;20266;-70
2023/05/22 01:57:26;;;;;;;15.23;10.68;;;;;;;11.70;100.00;95481.69;1027029;28;20258;-71
2023/05/22 01:58:00;;;;;;;14.00;10.38;;;;;;;11.67;100.00;95479.63;1023326;28;20267;-70
2023/05/22 01:58:51;;;;;;;14.15;10.70;;;;;;;11.64;100.00;95482.81;1022581;28;20259;-70
2023/05/22 01:59:54;;;;;;;13.63;9.88;;;;;;;11.61;100.00;95481.53;1026630;28;21058;-71
2023/05/22 02:00:25;;;;;;;13.40;9.75;;;;;;;11.57;100.00;95478.66;1037703;28;20259;-71
2023/05/22 02:00:56;;;;;;;17.90;11.13;;;;;;;11.60;100.00;95484.41;1030334;28;20270;-70
2023/05/22 02:01:26;;;;;;;14.38;11.20;;;;;;;11.59;100.00;95485.47;1025872;28;20015;-71
2023/05/22 02:01:59;;;;;;;17.13;10.93;;;;;;;11.56;100.00;95477.06;1026442;28;20262;-70
2023/05/22 02:02:30;;;;;;;19.40;11.15;;;;;;;11.54;100.00;95475.78;1026792;28;20023;-71
2023/05/22 02:03:05;;;;;;;18.30;11.68;;;;;;;11.54;100.00;95473.94;1026689;28;20262;-71
2023/05/22 02:03:35;;;;;;;16.67;10.80;;;;;;;11.60;100.00;95481.78;1030374;28;20369;-70
2023/05/22 02:04:06;;;;;;;15.70;11.20;;;;;;;11.59;100.00;95485.47;1022788;29;20306;-70
2023/05/22 02:04:38;;;;;;;14.90;10.90;;;;;;;11.51;100.00;95468.47;1014946;29;20395;-71
2023/05/22 02:05:10;;;;;;;14.00;11.07;;;;;;;11.55;100.00;95475.50;1025353;28;20023;-71
2023/05/22 02:05:40;;;;;;;15.63;11.65;;;;;;;11.51;100.00;95474.50;1026769;28;20266;-71
2023/05/22 02:06:12;;;;;;;24.90;12.05;;;;;;;11.51;100.00;95474.50;1034766;28;20635;-71
2023/05/22 02:06:42;;;;;;;20.95;11.88;;;;;;;11.56;100.00;95482.31;1022692;28;20540;-71
2023/05/22 02:07:13;;;;;;;16.00;10.63;;;;;;;11.55;100.00;95491.28;1018692;29;20275;-71
2023/05/22 02:07:43;;;;;;;17.02;11.60;;;;;;;11.50;100.00;95483.44;1034624;28;20468;-71
2023/05/22 02:08:13;;;;;;;16.63;12.30;;;;;;;11.53;100.00;95476.84;1038839;28;20842;-71
2023/05/22 02:08:44;;;;;;;16.40;10.75;;;;;;;11.54;100.00;95483.69;1030537;28;20026;-71
2023/05/22 02:09:15;;;;;;;14.88;11.50;;;;;;;11.52;100.00;95478.69;1030747;28;20026;-70
2023/05/22 02:09:46;;;;;;;14.70;11.10;;;;;;;11.50;100.00;95480.81;1038754;28;20037;-71
2023/05/22 02:10:16;;;;;;;17.33;11.68;;;;;;;11.49;100.00;95481.84;1034764;28;20753;-71
2023/05/22 02:10:50;;;;;;;14.63;10.95;;;;;;;11.46;100.00;95486.88;1026517;28;20090;-70
2023/05/22 02:11:20;;;;;;;14.77;10.90;;;;;;;11.48;100.00;95485.56;1021414;28;20023;-71
2023/05/22 02:11:50;;;;;;;15.52;11.25;;;;;;;11.48;100.00;95479.50;1025822;28;20278;-70
2023/05/22 02:12:21;;;;;;;14.82;10.75;;;;;;;11.44;100.00;95473.25;1030726;28;20068;-71
2023/05/22 02:12:52;;;;;;;16.05;11.73;;;;;;;11.47;100.00;95483.22;1026659;28;20110;-70
2023/05/22 02:13:23;;;;;;;14.70;10.73;;;;;;;11.46;100.00;95482.41;1026688;28;20269;-71
2023/05/22 02:13:54;;;;;;;16.63;11.45;;;;;;;11.38;100.00;95474.34;1021575;29;20417;-71
2023/05/22 02:14:25;;;;;;;18.73;11.32;;;;;;;11.39;100.00;95471.44;1030967;28;20348;-70
2023/05/22 02:14:55;;;;;;;16.83;10.85;;;;;;;11.33;100.00;95468.06;1034689;28;20267;-71
2023/05/22 02:15:26;;;;;;;14.68;10.73;;;;;;;11.44;100.00;95487.16;1026607;28;20034;-71
2023/05/22 02:15:56;;;;;;;14.35;11.07;;;;;;;11.40;100.00;95475.63;1026403;28;20138;-72
2023/05/22 02:16:29;;;;;;;17.40;11.63;;;;;;;11.44;100.00;95486.38;1026568;28;20019;-70
2023/05/22 02:17:00;;;;;;;16.90;11.68;;;;;;;11.43;100.00;95482.94;1027315;28;20077;-71
2023/05/22 02:17:39;;;;;;;15.20;11.38;;;;;;;11.44;100.00;95487.16;1030417;28;20266;-71
2023/05/22 02:18:11;;;;;;;14.85;11.05;;;;;;;11.43;100.00;95493.47;1022306;28;20638;-71
2023/05/22 02:18:43;;;;;;;14.57;10.82;;;;;;;11.43;100.00;95490.81;1022522;29;20270;-71
2023/05/22 02:19:14;;;;;;;16.27;10.98;;;;;;;11.37;100.00;95480.63;1027536;28;20270;-70
2023/05/22 02:19:44;;;;;;;16.02;10.70;;;;;;;11.43;100.00;95492.69;1026420;28;20308;-71
2023/05/22 02:20:15;;;;;;;17.08;11.35;;;;;;;11.38;100.00;95474.34;1022690;28;20031;-71
2023/05/22 02:20:45;;;;;;;16.55;11.57;;;;;;;11.40;100.00;95487.97;1026609;28;20019;-70
2023/05/22 02:21:16;;;;;;;18.88;11.43;;;;;;;11.41;100.00;95492.97;1029833;28;20022;-70
2023/05/22 02:21:46;;;;;;;16.05;10.40;;;;;;;11.36;100.00;95479.06;1034584;28;20034;-72
2023/05/22 02:22:17;;;;;;;15.77;11.00;;;;;;;11.39;100.00;95495.06;1030674;28;20022;-69
2023/05/22 02:22:47;;;;;;;15.45;11.23;;;;;;;11.33;100.00;95478.56;1028439;28;20034;-70
2023/05/22 02:23:18;;;;;;;16.85;11.50;;;;;;;11.36;100.00;95492.19;1026960;28;20038;-70
2023/05/22 02:23:48;;;;;;;16.00;10.82;;;;;;;11.30;100.00;95475.69;1023534;28;20031;-70
2023/05/22 02:24:19;;;;;;;17.83;11.20;;;;;;;11.31;100.00;95477.28;1027145;28;20026;-70
2023/05/22 02:24:50;;;;;;;17.52;11.30;;;;;;;11.33;100.00;95496.97;1031150;28;20084;-70
2023/05/22 02:25:20;;;;;;;14.80;10.45;;;;;;;11.26;100.00;95477.28;1031086;28;20026;-69
2023/05/22 02:25:51;;;;;;;12.82;10.68;;;;;;;11.32;100.00;95490.13;1030962;28;20519;-72
2023/05/22 02:26:21;;;;;;;15.35;11.80;;;;;;;11.33;100.00;95489.09;1027561;28;20042;-71
2023/05/22 02:26:52;;;;;;;15.68;10.93;;;;;;;11.32;100.00;95487.50;1031250;28;20443;-71
2023/05/22 02:27:22;;;;;;;18.00;11.45;;;;;;;11.32;100.00;95489.34;1023478;28;20082;-70
2023/05/22 02:27:53;;;;;;;13.77;10.80;;;;;;;11.31;100.00;95485.94;1027272;28;20059;-70
2023/05/22 02:28:23;;;;;;;14.95;10.75;;;;;;;11.24;100.00;95476.78;1023423;29;20055;-71
2023/05/22 02:28:54;;;;;;;20.13;12.00;;;;;;;11.30;100.00;95486.19;1031377;28;20034;-72
2023/05/22 02:29:24;;;;;;;19.48;12.07;;;;;;;11.27;100.00;95482.28;1030379;28;20038;-70
2023/05/22 02:29:55;;;;;;;17.00;10.93;;;;;;;11.30;100.00;95480.94;1027413;28;20479;-71
2023/05/22 02:30:25;;;;;;;14.15;11.30;;;;;;;11.27;100.00;95481.50;1027382;28;20037;-72
2023/05/22 02:30:56;;;;;;;14.98;11.45;;;;;;;11.28;100.00;95483.06;1027347;28;20039;-72
2023/05/22 02:31:26;;;;;;;17.65;11.20;;;;;;;11.28;100.00;95483.84;1026443;28;20339;-72
2023/05/22 02:31:56;;;;;;;14.60;11.20;;;;;;;11.23;100.00;95472.59;1035580;28;20045;-72
2023/05/22 02:32:27;;;;;;;16.40;11.10;;;;;;;11.26;100.00;95485.16;1027181;28;20030;-70